PN35 weather

Flying R Airport
Harrisonville, Pennsylvania, United States

Public forecast

Using degrees Fahrenheit for public forecast. Weather courtesy of forecast.io.

Closest aviation weather report (METAR) to Flying R Airport

Closest report is Bedford County Airport, 20.4 nm (37.7 km) WNW. Retrieved 2020/02/18 12:30 UTC (0 seconds ago):

KHMZ 181230Z AUTO 16011G15KT 10SM OVC050 05/M02 A3011 RMK AO2 T00471016

Closest aviation forecast (TAF) to Flying R Airport

Closest forecast is Altoona Blair County Airport, 20.8 nm (38.6 km) NNW. Retrieved 2020/02/18 12:33 UTC (0 seconds ago):

TAF KAOO 181129Z 1812/1912 14015G25KT P6SM -RA BKN035 OVC060 WS015/17040KT FM181400 18009G15KT 4SM -RA OVC025 WS020/21042KT FM181900 19007KT 2SM -RA OVC015 WS020/25039KT FM190300 29008G15KT P6SM BKN040